createdAt,value
2022-08-09T00:01:19.280Z,2.70
2022-08-09T00:04:03.473Z,2.80
2022-08-09T00:06:36.225Z,2.90
2022-08-09T00:09:03.773Z,3.30
2022-08-09T00:12:02.585Z,3.00
2022-08-09T00:14:22.062Z,3.30
2022-08-09T00:17:04.421Z,3.60
2022-08-09T00:19:32.613Z,3.10
2022-08-09T00:22:03.682Z,3.20
2022-08-09T00:24:33.547Z,3.20
2022-08-09T00:27:01.865Z,3.20
2022-08-09T00:29:39.493Z,3.40
2022-08-09T00:32:25.369Z,3.40
2022-08-09T00:34:56.161Z,3.80
2022-08-09T00:37:24.109Z,4.00
2022-08-09T00:40:09.404Z,3.40
2022-08-09T00:44:11.382Z,3.30
2022-08-09T00:45:29.202Z,3.40
2022-08-09T00:47:57.273Z,3.70
2022-08-09T00:52:53.814Z,3.70
2022-08-09T00:56:02.962Z,3.40
2022-08-09T00:58:14.833Z,3.50
2022-08-09T01:00:55.323Z,3.10
2022-08-09T01:03:46.770Z,3.50
2022-08-09T01:06:18.309Z,2.90
2022-08-09T01:08:54.177Z,3.00
2022-08-09T01:11:55.396Z,3.60
2022-08-09T01:14:55.767Z,3.20
2022-08-09T01:17:30.720Z,3.00
2022-08-09T01:20:14.941Z,3.10
2022-08-09T01:23:01.616Z,2.80
2022-08-09T01:25:53.668Z,3.50
2022-08-09T01:28:25.391Z,3.10
2022-08-09T01:30:58.189Z,2.60
2022-08-09T01:33:29.747Z,3.70
2022-08-09T01:36:06.010Z,3.30
2022-08-09T01:38:40.844Z,2.90
2022-08-09T01:41:25.857Z,3.10
2022-08-09T01:49:10.758Z,2.90
2022-08-09T01:51:53.008Z,2.70
2022-08-09T01:54:32.884Z,3.20
2022-08-09T01:57:08.172Z,3.10
2022-08-09T01:59:41.089Z,2.80
2022-08-09T02:02:31.028Z,2.50
2022-08-09T02:05:15.375Z,2.60
2022-08-09T02:08:39.435Z,2.80
2022-08-09T02:10:50.925Z,2.60
2022-08-09T02:13:26.051Z,2.80
2022-08-09T02:16:10.100Z,2.60
2022-08-09T02:18:47.795Z,2.60
2022-08-09T02:21:22.186Z,3.00
2022-08-09T02:26:27.075Z,2.40
2022-08-09T02:29:00.302Z,2.40
2022-08-09T02:31:34.278Z,2.50
2022-08-09T02:34:40.873Z,2.80
2022-08-09T02:37:04.996Z,2.30
2022-08-09T02:39:45.122Z,2.30
2022-08-09T02:42:24.726Z,2.60
2022-08-09T02:45:09.878Z,2.00
2022-08-09T02:47:57.755Z,2.40
2022-08-09T02:50:34.926Z,2.10
2022-08-09T02:53:25.670Z,2.00
2022-08-09T03:01:15.151Z,2.30
2022-08-09T03:04:17.538Z,1.50
2022-08-09T03:06:48.866Z,2.00
2022-08-09T03:09:20.170Z,2.00
2022-08-09T03:12:05.242Z,2.00
2022-08-09T03:14:38.170Z,2.10
2022-08-09T03:17:16.372Z,2.30
2022-08-09T03:19:58.336Z,2.20
2022-08-09T03:22:30.836Z,2.40
2022-08-09T03:25:19.832Z,2.00
2022-08-09T03:27:50.776Z,2.40
2022-08-09T03:30:29.733Z,2.20
2022-08-09T03:33:17.403Z,2.50
2022-08-09T03:36:15.945Z,2.40
2022-08-09T03:38:44.890Z,2.40
2022-08-09T03:41:15.482Z,2.20
2022-08-09T03:44:03.341Z,2.20
2022-08-09T03:46:33.835Z,2.10
2022-08-09T03:51:55.542Z,2.30
2022-08-09T03:54:29.346Z,2.60
2022-08-09T03:57:00.846Z,2.30
2022-08-09T03:59:42.793Z,2.20
2022-08-09T04:02:11.194Z,2.00
2022-08-09T04:04:45.656Z,2.30
2022-08-09T04:07:14.486Z,2.90
2022-08-09T04:09:50.319Z,2.30
2022-08-09T04:12:37.613Z,2.50
2022-08-09T04:15:11.163Z,2.40
2022-08-09T04:20:12.060Z,2.70
2022-08-09T04:22:44.378Z,2.40
2022-08-09T04:25:12.896Z,2.90
2022-08-09T04:27:48.900Z,2.50
2022-08-09T04:30:26.186Z,2.50
2022-08-09T04:32:56.709Z,2.80
2022-08-09T04:35:24.305Z,2.30
2022-08-09T04:37:51.803Z,3.00
2022-08-09T04:40:35.975Z,2.50
2022-08-09T04:43:05.445Z,2.40
2022-08-09T04:45:36.034Z,2.30
2022-08-09T04:48:20.759Z,2.40
2022-08-09T04:50:50.013Z,2.10
2022-08-09T04:53:17.972Z,2.30
2022-08-09T04:55:59.128Z,2.40
2022-08-09T04:58:29.077Z,2.10
2022-08-09T05:01:00.583Z,2.40
2022-08-09T05:03:40.946Z,2.60
2022-08-09T05:06:25.861Z,2.20
2022-08-09T05:09:00.382Z,2.50
2022-08-09T05:11:32.077Z,1.80
2022-08-09T05:14:06.268Z,2.10
2022-08-09T05:16:58.118Z,2.10
2022-08-09T05:19:25.907Z,2.10
2022-08-09T05:21:55.522Z,2.00
2022-08-09T05:24:24.745Z,2.20
2022-08-09T05:26:53.051Z,2.10
2022-08-09T05:29:23.987Z,1.80
2022-08-09T05:31:56.664Z,1.80
2022-08-09T05:34:30.913Z,2.10
2022-08-09T05:37:04.972Z,2.00
2022-08-09T05:39:43.269Z,2.20
2022-08-09T05:42:20.579Z,2.00
2022-08-09T05:44:51.816Z,2.00
2022-08-09T05:47:22.558Z,2.00
2022-08-09T05:50:25.547Z,1.90
2022-08-09T05:52:52.103Z,1.90
2022-08-09T05:55:23.417Z,1.80
2022-08-09T05:57:56.808Z,1.90
2022-08-09T06:00:27.800Z,2.20
2022-08-09T06:03:02.831Z,2.10
2022-08-09T06:08:19.559Z,1.80
2022-08-09T06:10:56.270Z,2.00
2022-08-09T06:13:28.251Z,1.80
2022-08-09T06:15:55.934Z,1.80
2022-08-09T06:18:25.508Z,2.00
2022-08-09T06:20:57.627Z,2.20
2022-08-09T06:23:57.657Z,1.70
2022-08-09T06:26:22.465Z,1.70
2022-08-09T06:29:00.282Z,1.90
2022-08-09T06:31:39.665Z,2.10
2022-08-09T06:34:23.265Z,2.30
2022-08-09T06:36:57.466Z,1.90
2022-08-09T06:39:48.677Z,2.00
2022-08-09T06:44:51.711Z,2.00
2022-08-09T06:47:23.824Z,2.30
2022-08-09T06:50:14.025Z,2.20
2022-08-09T06:52:49.043Z,2.10
2022-08-09T06:55:23.072Z,2.10
2022-08-09T06:58:01.992Z,2.40
2022-08-09T07:00:51.173Z,2.00
2022-08-09T07:03:26.983Z,2.00
2022-08-09T07:06:04.164Z,2.10
2022-08-09T07:08:36.976Z,1.80
2022-08-09T07:11:07.034Z,2.00
2022-08-09T07:13:45.100Z,2.30
2022-08-09T07:16:44.009Z,2.00
2022-08-09T07:19:15.669Z,2.30
2022-08-09T07:21:55.194Z,2.00
2022-08-09T07:24:39.876Z,2.00
2022-08-09T07:27:26.371Z,2.00
2022-08-09T07:29:59.796Z,1.90
2022-08-09T07:32:33.174Z,1.90
2022-08-09T07:35:07.944Z,2.10
2022-08-09T07:37:50.873Z,1.80
2022-08-09T07:40:26.732Z,2.00
2022-08-09T07:42:58.400Z,2.20
2022-08-09T07:45:37.462Z,2.10
2022-08-09T07:48:25.502Z,2.00
2022-08-09T07:51:09.657Z,2.30
2022-08-09T07:54:06.921Z,2.00
2022-08-09T07:56:34.723Z,2.00
2022-08-09T07:59:12.400Z,2.40
2022-08-09T08:01:43.831Z,2.20
2022-08-09T08:04:31.199Z,2.60
2022-08-09T08:07:09.315Z,2.10
2022-08-09T08:09:51.526Z,2.10
2022-08-09T08:12:34.373Z,2.20
2022-08-09T08:15:02.097Z,2.30
2022-08-09T08:17:52.637Z,2.30
2022-08-09T08:20:29.263Z,2.20
2022-08-09T08:23:03.504Z,2.10
2022-08-09T08:25:44.682Z,1.90
2022-08-09T08:28:15.706Z,2.20
2022-08-09T08:30:47.542Z,1.90
2022-08-09T08:33:24.104Z,2.30
2022-08-09T08:36:00.547Z,1.90
2022-08-09T08:38:31.226Z,2.10
2022-08-09T08:41:05.670Z,2.20
2022-08-09T08:43:34.192Z,2.10
2022-08-09T08:46:33.412Z,2.10
2022-08-09T08:49:00.635Z,2.30
2022-08-09T08:51:41.902Z,2.10
2022-08-09T08:54:20.488Z,2.30
2022-08-09T08:56:56.676Z,2.20
2022-08-09T08:59:28.002Z,2.00
2022-08-09T09:02:31.735Z,2.10
2022-08-09T09:05:06.195Z,1.80
2022-08-09T09:07:44.668Z,2.10
2022-08-09T09:10:12.635Z,2.00
2022-08-09T09:12:44.595Z,2.30
2022-08-09T09:15:12.463Z,2.10
2022-08-09T09:17:56.258Z,2.30
2022-08-09T09:20:25.854Z,2.20
2022-08-09T09:23:01.627Z,2.00
2022-08-09T09:26:04.787Z,1.90
2022-08-09T09:29:01.917Z,2.30
2022-08-09T09:32:01.496Z,2.40
2022-08-09T09:34:15.361Z,2.10
2022-08-09T09:36:52.912Z,2.10
2022-08-09T09:39:42.685Z,2.00
2022-08-09T09:42:25.533Z,2.00
2022-08-09T09:45:06.939Z,2.40
2022-08-09T09:47:42.111Z,2.50
2022-08-09T09:50:22.858Z,2.20
2022-08-09T09:52:54.904Z,2.20
2022-08-09T09:55:31.318Z,2.00
2022-08-09T09:58:15.580Z,2.30
2022-08-09T10:00:55.018Z,2.50
2022-08-09T10:03:56.186Z,2.50
2022-08-09T10:06:27.214Z,2.40
2022-08-09T10:09:02.742Z,2.80
2022-08-09T10:12:07.763Z,2.20
2022-08-09T10:14:33.126Z,2.30
2022-08-09T10:17:39.764Z,2.80
2022-08-09T10:20:00.975Z,2.70
2022-08-09T10:22:39.037Z,2.40
2022-08-09T10:25:12.328Z,2.80
2022-08-09T10:27:57.883Z,2.70
2022-08-09T10:34:07.845Z,2.40
2022-08-09T10:36:11.693Z,2.60
2022-08-09T10:39:00.127Z,2.50
2022-08-09T10:42:04.060Z,2.90
2022-08-09T10:44:51.592Z,3.20
2022-08-09T10:48:20.215Z,2.40
2022-08-09T10:51:06.443Z,3.20
2022-08-09T10:54:12.261Z,2.70
2022-08-09T10:57:05.275Z,3.00
2022-08-09T10:59:43.136Z,2.90
2022-08-09T11:03:10.879Z,3.10
2022-08-09T11:05:38.628Z,2.90
2022-08-09T11:08:54.924Z,2.80
2022-08-09T11:11:57.872Z,3.20
2022-08-09T11:14:37.965Z,2.80
2022-08-09T11:17:14.770Z,2.80
2022-08-09T11:20:11.743Z,3.00
2022-08-09T11:22:58.437Z,2.90
2022-08-09T11:25:45.427Z,2.90
2022-08-09T11:28:34.663Z,2.90
2022-08-09T11:31:56.119Z,3.30
2022-08-09T11:35:00.300Z,2.90
2022-08-09T11:37:43.234Z,3.50
2022-08-09T11:40:20.360Z,3.00
2022-08-09T11:42:57.834Z,3.50
2022-08-09T11:45:42.585Z,3.20
2022-08-09T11:48:26.234Z,3.40
2022-08-09T11:52:06.816Z,3.40
2022-08-09T11:54:01.292Z,3.40
2022-08-09T11:56:34.387Z,3.30
2022-08-09T11:59:40.204Z,3.40
2022-08-09T12:02:39.643Z,3.40
2022-08-09T12:05:26.926Z,3.40
2022-08-09T12:08:01.028Z,3.00
2022-08-09T12:10:39.482Z,3.20
2022-08-09T12:14:08.966Z,2.80
2022-08-09T12:16:56.352Z,2.80
2022-08-09T12:19:36.041Z,3.20
2022-08-09T12:22:09.625Z,3.30
2022-08-09T12:24:39.110Z,3.10
2022-08-09T12:29:13.368Z,3.10
2022-08-09T12:30:00.104Z,3.40
2022-08-09T12:32:32.366Z,3.20
2022-08-09T12:35:04.920Z,3.40
2022-08-09T12:37:50.411Z,3.40
2022-08-09T12:40:24.475Z,3.70
2022-08-09T12:42:53.936Z,3.10
2022-08-09T12:45:33.451Z,3.30
2022-08-09T12:48:07.890Z,3.40
2022-08-09T12:50:39.285Z,3.90
2022-08-09T12:53:37.862Z,3.40
2022-08-09T12:56:39.983Z,3.40
2022-08-09T12:59:09.160Z,3.00
2022-08-09T13:01:47.095Z,3.30
2022-08-09T13:04:36.894Z,3.80
2022-08-09T13:07:19.946Z,3.80
2022-08-09T13:10:04.207Z,3.50
2022-08-09T13:12:32.355Z,3.50
2022-08-09T13:15:07.979Z,3.50
2022-08-09T13:18:03.430Z,3.30
2022-08-09T13:21:04.293Z,3.30
2022-08-09T13:24:44.451Z,3.50
2022-08-09T13:26:43.123Z,3.50
2022-08-09T13:30:02.694Z,3.60
2022-08-09T13:32:56.580Z,3.60
2022-08-09T13:36:24.162Z,3.10
2022-08-09T13:38:54.967Z,3.80
2022-08-09T13:41:57.233Z,3.20
2022-08-09T13:44:41.976Z,3.60
2022-08-09T13:47:33.597Z,3.20
2022-08-09T13:50:34.303Z,3.50
2022-08-09T13:53:16.941Z,3.80
2022-08-09T13:55:58.619Z,3.90
2022-08-09T13:58:44.090Z,4.20
2022-08-09T14:02:00.572Z,4.00
2022-08-09T14:04:39.416Z,3.80
2022-08-09T14:07:41.179Z,3.70
2022-08-09T14:10:46.592Z,4.20
2022-08-09T14:14:24.069Z,4.20
2022-08-09T14:16:35.971Z,3.20
2022-08-09T14:19:30.351Z,3.60
2022-08-09T14:22:14.764Z,4.00
2022-08-09T14:24:57.995Z,4.10
2022-08-09T14:27:58.807Z,4.20
2022-08-09T14:30:46.978Z,3.90
2022-08-09T14:33:38.033Z,3.70
2022-08-09T14:36:21.123Z,3.70
2022-08-09T14:39:08.203Z,4.10
2022-08-09T14:41:59.625Z,4.20
2022-08-09T14:44:48.996Z,3.60
2022-08-09T14:47:44.941Z,3.70
2022-08-09T14:50:27.192Z,3.60
2022-08-09T14:53:11.277Z,4.00
2022-08-09T14:55:51.741Z,4.10
2022-08-09T14:58:37.494Z,3.90
2022-08-09T15:01:30.145Z,4.10
2022-08-09T15:04:12.244Z,3.40
2022-08-09T15:06:55.570Z,4.50
2022-08-09T15:10:03.539Z,3.80
2022-08-09T15:12:39.417Z,3.60
2022-08-09T15:15:29.896Z,3.60
2022-08-09T15:18:14.838Z,4.00
2022-08-09T15:21:55.329Z,3.90
2022-08-09T15:24:02.108Z,4.10
2022-08-09T15:26:53.321Z,4.30
2022-08-09T15:30:59.435Z,4.00
2022-08-09T15:32:36.317Z,4.00
2022-08-09T15:35:40.423Z,3.90
2022-08-09T15:38:20.389Z,3.70
2022-08-09T15:41:00.783Z,4.40
2022-08-09T15:46:33.228Z,3.70
2022-08-09T15:49:21.721Z,4.20
2022-08-09T15:52:02.650Z,3.80
2022-08-09T15:54:49.089Z,3.80
2022-08-09T15:57:34.128Z,3.90
2022-08-09T16:00:10.993Z,4.10
2022-08-09T16:02:48.045Z,3.70
2022-08-09T16:05:24.097Z,3.60
2022-08-09T16:07:51.543Z,4.00
2022-08-09T16:10:38.815Z,4.00
2022-08-09T16:13:18.926Z,4.00
2022-08-09T16:16:12.275Z,3.70
2022-08-09T16:18:45.349Z,3.60
2022-08-09T16:21:17.524Z,3.70
2022-08-09T16:23:58.290Z,3.80
2022-08-09T16:26:35.629Z,4.10
2022-08-09T16:29:11.355Z,4.00
2022-08-09T16:32:18.802Z,4.40
2022-08-09T16:34:53.420Z,3.90
2022-08-09T16:37:50.665Z,4.30
2022-08-09T16:40:10.728Z,4.10
2022-08-09T16:42:45.153Z,4.20
2022-08-09T16:45:20.753Z,4.10
2022-08-09T16:48:38.346Z,4.00
2022-08-09T16:51:16.074Z,3.90
2022-08-09T16:54:25.156Z,3.90
2022-08-09T16:56:34.333Z,4.30
2022-08-09T16:59:06.912Z,4.30
2022-08-09T17:01:38.859Z,4.10
2022-08-09T17:04:06.693Z,3.90
2022-08-09T17:07:03.975Z,4.00
2022-08-09T17:09:45.539Z,4.40
2022-08-09T17:12:12.731Z,3.90
2022-08-09T17:14:47.664Z,3.90
2022-08-09T17:17:27.246Z,3.80
2022-08-09T17:20:30.272Z,4.10
2022-08-09T17:22:51.936Z,3.80
2022-08-09T17:25:23.331Z,4.20
2022-08-09T17:27:54.463Z,3.70
2022-08-09T17:30:25.929Z,4.10
2022-08-09T17:33:05.096Z,3.60
2022-08-09T17:35:49.518Z,4.30
2022-08-09T17:38:34.283Z,3.50
2022-08-09T17:41:04.728Z,3.70
2022-08-09T17:43:35.695Z,4.00
2022-08-09T17:46:09.046Z,3.90
2022-08-09T17:48:40.313Z,3.40
2022-08-09T17:51:19.518Z,3.50
2022-08-09T17:53:55.290Z,4.10
2022-08-09T17:56:29.131Z,3.80
2022-08-09T17:59:09.467Z,3.90
2022-08-09T18:02:07.559Z,3.70
2022-08-09T18:08:13.334Z,3.70
2022-08-09T18:10:46.014Z,4.30
2022-08-09T18:13:38.644Z,3.70
2022-08-09T18:16:12.027Z,4.10
2022-08-09T18:18:43.226Z,3.40
2022-08-09T18:21:23.986Z,3.80
2022-08-09T18:24:09.633Z,3.50
2022-08-09T18:26:46.823Z,3.90
2022-08-09T18:30:35.326Z,3.60
2022-08-09T18:32:05.532Z,3.80
2022-08-09T18:34:36.261Z,3.90
2022-08-09T18:37:05.020Z,3.30
2022-08-09T18:39:38.791Z,3.60
2022-08-09T18:42:08.738Z,5.10
2022-08-09T18:44:37.123Z,4.10
2022-08-09T18:49:46.338Z,3.50
2022-08-09T18:52:24.564Z,3.20
2022-08-09T18:54:56.414Z,3.60
2022-08-09T18:57:42.851Z,3.50
2022-08-09T19:00:16.773Z,3.50
2022-08-09T19:02:51.288Z,3.70
2022-08-09T19:08:18.370Z,3.50
2022-08-09T19:10:49.112Z,3.30
2022-08-09T19:13:37.908Z,3.70
2022-08-09T19:16:09.335Z,3.70
2022-08-09T19:18:43.742Z,3.30
2022-08-09T19:21:14.752Z,3.20
2022-08-09T19:24:33.610Z,3.40
2022-08-09T19:26:32.265Z,3.80
2022-08-09T19:29:09.726Z,3.20
2022-08-09T19:31:49.554Z,3.20
2022-08-09T19:34:22.494Z,3.30
2022-08-09T19:36:53.848Z,3.40
2022-08-09T19:39:43.242Z,3.40
2022-08-09T19:42:14.424Z,3.60
2022-08-09T19:44:43.585Z,3.30
2022-08-09T19:47:11.616Z,3.30
2022-08-09T19:50:07.190Z,3.70
2022-08-09T19:52:29.672Z,3.50
2022-08-09T19:54:57.635Z,4.20
2022-08-09T19:57:26.936Z,4.30
2022-08-09T20:04:09.923Z,3.80
2022-08-09T20:05:16.915Z,3.70
2022-08-09T20:07:59.418Z,3.80
2022-08-09T20:10:37.117Z,3.50
2022-08-09T20:13:07.996Z,3.80
2022-08-09T20:16:33.949Z,4.10
2022-08-09T20:18:27.916Z,4.20
2022-08-09T20:20:57.046Z,3.90
2022-08-09T20:23:39.331Z,3.60
2022-08-09T20:26:10.031Z,3.50
2022-08-09T20:28:48.535Z,3.80
2022-08-09T20:31:18.847Z,4.00
2022-08-09T20:33:58.258Z,4.30
2022-08-09T20:36:30.276Z,4.10
2022-08-09T20:39:28.581Z,4.10
2022-08-09T20:41:48.887Z,4.30
2022-08-09T20:44:17.117Z,3.90
2022-08-09T20:46:55.226Z,3.90
2022-08-09T20:49:28.600Z,3.80
2022-08-09T20:51:56.896Z,3.80
2022-08-09T20:54:25.686Z,3.70
2022-08-09T20:56:57.208Z,3.70
2022-08-09T21:00:20.962Z,3.60
2022-08-09T21:02:18.603Z,3.60
2022-08-09T21:05:57.171Z,3.70
2022-08-09T21:07:40.306Z,3.80
2022-08-09T21:10:12.093Z,3.70
2022-08-09T21:15:34.181Z,3.70
2022-08-09T21:18:22.311Z,4.10
2022-08-09T21:20:54.596Z,4.10
2022-08-09T21:23:26.498Z,4.30
2022-08-09T21:26:15.558Z,4.80
2022-08-09T21:28:55.342Z,3.50
2022-08-09T21:31:49.347Z,3.90
2022-08-09T21:34:17.093Z,3.90
2022-08-09T21:36:57.919Z,3.80
2022-08-09T21:42:13.538Z,3.40
2022-08-09T21:44:42.864Z,3.30
2022-08-09T21:47:17.686Z,4.20
2022-08-09T21:49:49.498Z,3.60
2022-08-09T21:52:22.211Z,3.60
2022-08-09T21:54:59.317Z,3.40
2022-08-09T21:57:58.489Z,3.90
2022-08-09T22:00:32.599Z,3.80
2022-08-09T22:03:19.112Z,3.50
2022-08-09T22:05:51.298Z,3.80
2022-08-09T22:08:19.731Z,4.10
2022-08-09T22:11:00.969Z,3.80
2022-08-09T22:13:43.849Z,3.40
2022-08-09T22:16:12.151Z,4.00
2022-08-09T22:21:21.682Z,3.50
2022-08-09T22:24:01.708Z,3.40
2022-08-09T22:29:07.078Z,4.00
2022-08-09T22:31:36.349Z,3.80
2022-08-09T22:34:09.804Z,3.80
2022-08-09T22:36:46.288Z,3.70
2022-08-09T22:39:46.967Z,3.80
2022-08-09T22:42:16.302Z,3.70
2022-08-09T22:45:00.243Z,4.00
2022-08-09T22:48:11.600Z,4.20
2022-08-09T22:50:29.889Z,3.50
2022-08-09T22:52:58.952Z,4.10
2022-08-09T22:55:39.448Z,4.00
2022-08-09T22:58:20.180Z,3.60
2022-08-09T23:00:59.571Z,4.00
2022-08-09T23:03:31.319Z,3.80
2022-08-09T23:06:34.838Z,3.80
2022-08-09T23:09:08.169Z,3.70
2022-08-09T23:11:36.345Z,3.60
2022-08-09T23:14:10.125Z,3.30
2022-08-09T23:16:38.528Z,3.80
2022-08-09T23:19:06.397Z,3.70
2022-08-09T23:21:38.303Z,4.10
2022-08-09T23:24:08.219Z,3.80
2022-08-09T23:26:37.509Z,3.70
2022-08-09T23:29:06.731Z,3.80
2022-08-09T23:31:34.533Z,3.80
2022-08-09T23:34:03.812Z,3.90
2022-08-09T23:36:33.228Z,4.20
2022-08-09T23:39:01.750Z,4.20
2022-08-09T23:41:29.992Z,4.10
2022-08-09T23:44:00.194Z,3.90
2022-08-09T23:46:30.032Z,3.70
2022-08-09T23:48:58.971Z,4.10
2022-08-09T23:51:27.588Z,3.90
2022-08-09T23:54:02.028Z,3.80
2022-08-09T23:56:53.399Z,3.90
2022-08-09T23:59:23.581Z,4.20
